Las Palmas de Gran Canaria, Canary Islands

11:23 PM WEST en Octubre 22, 2014 (GMT +0100)
Gran Canaria | Change Station
CLOSE
Current Station
Estación meteorológica personal
Location: Gran Canaria, Canary Islands
Altura: 30 ft
Estaciones meteorológicas cercanas

Alt 30 ft 28.00 °N, 15.37 °W | Updated 7 seconds ago

Clear
Despejado
77.2 ° F
Sensación térmica 79 ° F
N
13.8
Viento Variable Viento desde NNO
Gusts 13.8 mph

Hoy
Alta -- | Baja -- ° F
--% Posibilidad de precipitaciones
Ayer
Alta -- | Baja -- ° F
Precip. -- pul
8:05 AM 7:25 PM
Creciente menguante, 1% visible
Presión 30.09 pul
Visibilidad -9999.0 Millas
Nubes
Índice de calor 79 ° F
Punto de rocío 66 ° F
Humedad 69%
Precipitaciones 0.00 pul
Espesor de la nieve No disponible.
UV No disponible.
Polen No disponible.
Calidad del aire No disponible.
Flu Activity No disponible.
METAR GCLP 222200Z 36011KT CAVOK 27/13 Q1019 NOSIG

More Conditions Fewer Conditions

Presión 30.09 pul
Visibilidad -9999.0 Millas
Nubes
Índice de calor 79 ° F
Punto de rocío 66 ° F
Humedad 69%
Precipitaciones 0.00 pul
Espesor de la nieve No disponible.
UV No disponible.
Polen No disponible.
Calidad del aire No disponible.
Flu Activity No disponible.
METAR GCLP 222200Z 36011KT CAVOK 27/13 Q1019 NOSIG

More Conditions Fewer Conditions

10-Day Weather Forecast

Almanac

Astronomía

Oct. 22, 2014 Salida Puesta
Hora real 8:05 AM WEST 7:25 PM WEST
Crepúsculo civil 7:42 AM WEST 7:49 PM WEST
Crepúsculo náutico 7:14 AM WEST 8:16 PM WEST
Crepúsculo astronómico 6:47 AM WEST 8:44 PM WEST
Luna 6:42 AM WEST 6:40 PM WEST
Horas de luz 12h 07m
Horas de luz
11h 19m
Tomorrow will be 1m 33s shorter.
Creciente menguante, 1% of the Moon is Illuminated
Hoy
Creciente menguante
Oct 23
Nueva
Oct 30
Cuarto creciente
Nov 6
Luna llena
Nov 14
Cuarto menguante

Extremos de hoy

Máximos del país Bajas del país

Community

WunderPhotos

Upload Photos

1,764,064 ¡fotos cargadas!

WunderBlogs® & News

Nearby

Calidad del aire

Not available.

Grosos de nieve

Not available.

Actividad de terremotos

Ciudad Distance Mag. Tiempo y dato
No hay informes recientes de la actividad sísmica.
Magnitud mínima muestra es 2,5.

Temperaturas de aguas costeras

Lugar Temperatura
Sin partes meteorológicos de las estaciones

Estaciones meteorológicas cercanas